createdAt,value
2017-02-09T00:00:55.981Z,-0.3
2017-02-09T00:02:07.591Z,-0.18
2017-02-09T00:03:19.195Z,-0.27
2017-02-09T00:04:30.702Z,-0.3
2017-02-09T00:05:42.093Z,-0.22
2017-02-09T00:06:53.491Z,-0.28
2017-02-09T00:08:04.890Z,-0.23
2017-02-09T00:09:16.287Z,-0.3
2017-02-09T00:10:27.686Z,-0.3
2017-02-09T00:11:39.098Z,-0.23
2017-02-09T00:12:50.502Z,-0.33
2017-02-09T00:14:02.102Z,-0.4
2017-02-09T00:15:13.765Z,-0.41
2017-02-09T00:16:25.166Z,-0.31
2017-02-09T00:17:36.565Z,-0.25
2017-02-09T00:18:47.966Z,-0.31
2017-02-09T00:19:59.369Z,-0.3
2017-02-09T00:21:10.782Z,-0.2
2017-02-09T00:22:22.183Z,-0.23
2017-02-09T00:23:33.809Z,-0.31
2017-02-09T00:24:45.204Z,-0.27
2017-02-09T00:25:56.704Z,-0.23
2017-02-09T00:27:08.117Z,-0.23
2017-02-09T00:28:19.525Z,-0.31
2017-02-09T00:29:30.929Z,-0.31
2017-02-09T00:30:42.335Z,-0.31
2017-02-09T00:31:53.940Z,-0.19
2017-02-09T00:33:05.341Z,-0.31
2017-02-09T00:34:16.746Z,-0.25
2017-02-09T00:35:28.350Z,-0.22
2017-02-09T00:36:39.797Z,-0.27
2017-02-09T00:37:51.206Z,-0.3
2017-02-09T00:39:02.605Z,-0.33
2017-02-09T00:40:14.005Z,-0.34
2017-02-09T00:41:25.416Z,-0.27
2017-02-09T00:42:36.818Z,-0.31
2017-02-09T00:43:48.222Z,-0.27
2017-02-09T00:44:59.624Z,-0.22
2017-02-09T00:46:11.034Z,-0.18
2017-02-09T00:47:22.439Z,-0.18
2017-02-09T00:48:33.883Z,-0.2
2017-02-09T00:49:45.482Z,-0.22
2017-02-09T00:50:56.885Z,-0.23
2017-02-09T00:52:08.289Z,-0.23
2017-02-09T00:53:19.890Z,-0.22
2017-02-09T00:54:31.327Z,-0.3
2017-02-09T00:55:42.731Z,-0.28
2017-02-09T00:56:54.140Z,-0.28
2017-02-09T00:58:05.797Z,-0.27
2017-02-09T00:59:17.407Z,-0.27
2017-02-09T01:00:29.007Z,-0.28
2017-02-09T01:01:40.604Z,-0.3
2017-02-09T01:02:52.209Z,-0.3
2017-02-09T01:04:03.818Z,-0.28
2017-02-09T01:05:15.216Z,-0.27
2017-02-09T01:06:26.625Z,-0.28
2017-02-09T01:07:38.029Z,-0.22
2017-02-09T01:08:49.485Z,-0.34
2017-02-09T01:10:00.881Z,-0.22
2017-02-09T01:11:12.287Z,-0.28
2017-02-09T01:12:23.685Z,-0.31
2017-02-09T01:13:35.085Z,-0.25
2017-02-09T01:14:46.499Z,-0.3
2017-02-09T01:15:58.094Z,-0.36
2017-02-09T01:17:09.495Z,-0.41
2017-02-09T01:18:20.897Z,-0.38
2017-02-09T01:19:32.350Z,-0.3
2017-02-09T01:20:43.751Z,-0.33
2017-02-09T01:21:55.156Z,-0.37
2017-02-09T01:23:06.569Z,-0.36
2017-02-09T01:24:17.966Z,-0.37
2017-02-09T01:25:29.359Z,-0.25
2017-02-09T01:26:40.767Z,-0.34
2017-02-09T01:27:52.167Z,-0.37
2017-02-09T01:29:03.776Z,-0.41
2017-02-09T01:30:15.224Z,-0.41
2017-02-09T01:31:26.631Z,-0.38
2017-02-09T01:32:38.025Z,-0.34
2017-02-09T01:33:49.430Z,-0.38
2017-02-09T01:35:00.826Z,-0.34
2017-02-09T01:36:12.228Z,-0.25
2017-02-09T01:37:23.632Z,-0.27
2017-02-09T01:38:35.034Z,-0.28
2017-02-09T01:39:46.424Z,-0.33
2017-02-09T01:40:57.828Z,-0.25
2017-02-09T01:42:09.275Z,-0.27
2017-02-09T01:43:20.673Z,-0.3
2017-02-09T01:44:32.079Z,-0.23
2017-02-09T01:45:43.486Z,-0.28
2017-02-09T01:46:54.890Z,-0.23
2017-02-09T01:48:06.284Z,-0.31
2017-02-09T01:49:17.679Z,-0.27
2017-02-09T01:50:29.088Z,-0.28
2017-02-09T01:51:40.754Z,-0.22
2017-02-09T01:52:52.159Z,-0.22
2017-02-09T01:54:03.565Z,-0.22
2017-02-09T01:55:14.971Z,-0.23
2017-02-09T01:56:26.377Z,-0.27
2017-02-09T01:57:37.785Z,-0.3
2017-02-09T01:58:49.393Z,-0.27
2017-02-09T02:00:00.796Z,-0.27
2017-02-09T02:01:12.193Z,-0.31
2017-02-09T02:02:23.677Z,-0.34
2017-02-09T02:03:35.082Z,-0.31
2017-02-09T02:04:46.479Z,-0.31
2017-02-09T02:05:57.880Z,-0.33
2017-02-09T02:07:09.287Z,-0.27
2017-02-09T02:08:20.687Z,-0.23
2017-02-09T02:09:32.094Z,-0.3
2017-02-09T02:10:43.500Z,-0.34
2017-02-09T02:11:54.910Z,-0.4
2017-02-09T02:13:06.564Z,-0.36
2017-02-09T02:14:17.967Z,-0.4
2017-02-09T02:15:29.573Z,-0.37
2017-02-09T02:16:40.975Z,-0.38
2017-02-09T02:17:52.375Z,-0.41
2017-02-09T02:19:03.791Z,-0.38
2017-02-09T02:20:15.194Z,-0.36
2017-02-09T02:21:26.595Z,-0.51
2017-02-09T02:22:38.022Z,-0.51
2017-02-09T02:23:49.461Z,-0.46
2017-02-09T02:25:00.862Z,-0.36
2017-02-09T02:26:12.262Z,-0.41
2017-02-09T02:27:23.670Z,-0.34
2017-02-09T02:28:35.063Z,-0.4
2017-02-09T02:29:46.458Z,-0.43
2017-02-09T02:30:58.059Z,-0.37
2017-02-09T02:32:09.466Z,-0.36
2017-02-09T02:33:21.070Z,-0.4
2017-02-09T02:34:32.468Z,-0.41
2017-02-09T02:35:43.926Z,-0.43
2017-02-09T02:36:55.336Z,-0.45
2017-02-09T02:38:06.743Z,-0.52
2017-02-09T02:39:18.149Z,-0.45
2017-02-09T02:40:30.149Z,-0.41
2017-02-09T02:41:41.751Z,-0.49
2017-02-09T02:42:53.348Z,-0.46
2017-02-09T02:44:04.751Z,-0.45
2017-02-09T02:45:16.203Z,-0.4
2017-02-09T02:46:27.613Z,-0.37
2017-02-09T02:47:39.007Z,-0.43
2017-02-09T02:48:50.646Z,-0.43
2017-02-09T02:50:02.045Z,-0.45
2017-02-09T02:51:13.437Z,-0.45
2017-02-09T02:52:24.836Z,-0.51
2017-02-09T02:53:36.238Z,-0.43
2017-02-09T02:54:47.838Z,-0.49
2017-02-09T02:55:59.282Z,-0.55
2017-02-09T02:57:10.679Z,-0.46
2017-02-09T02:58:22.078Z,-0.54
2017-02-09T02:59:33.482Z,-0.55
2017-02-09T03:00:44.887Z,-0.49
2017-02-09T03:01:56.292Z,-0.46
2017-02-09T03:03:07.692Z,-0.49
2017-02-09T03:04:19.295Z,-0.56
2017-02-09T03:05:30.731Z,-0.46
2017-02-09T03:06:42.204Z,-0.37
2017-02-09T03:07:53.618Z,-0.4
2017-02-09T03:09:05.029Z,-0.4
2017-02-09T03:10:16.632Z,-0.46
2017-02-09T03:11:28.038Z,-0.46
2017-02-09T03:12:39.429Z,-0.43
2017-02-09T03:13:50.828Z,-0.52
2017-02-09T03:15:02.221Z,-0.45
2017-02-09T03:16:13.650Z,-0.54
2017-02-09T03:17:25.064Z,-0.55
2017-02-09T03:18:36.463Z,-0.51
2017-02-09T03:19:47.859Z,-0.55
2017-02-09T03:20:59.465Z,-0.46
2017-02-09T03:22:10.866Z,-0.55
2017-02-09T03:23:22.270Z,-0.43
2017-02-09T03:24:33.673Z,-0.38
2017-02-09T03:25:45.072Z,-0.45
2017-02-09T03:26:56.470Z,-0.41
2017-02-09T03:28:07.919Z,-0.48
2017-02-09T03:29:19.363Z,-0.45
2017-02-09T03:30:30.767Z,-0.41
2017-02-09T03:31:42.180Z,-0.52
2017-02-09T03:32:53.784Z,-0.45
2017-02-09T03:34:05.187Z,-0.51
2017-02-09T03:35:16.591Z,-0.45
2017-02-09T03:36:28.000Z,-0.56
2017-02-09T03:37:39.401Z,-0.48
2017-02-09T03:38:50.846Z,-0.46
2017-02-09T03:40:02.247Z,-0.58
2017-02-09T03:41:13.647Z,-0.55
2017-02-09T03:42:25.047Z,-0.54
2017-02-09T03:43:36.445Z,-0.52
2017-02-09T03:44:47.844Z,-0.55
2017-02-09T03:45:59.246Z,-0.59
2017-02-09T03:47:10.647Z,-0.72
2017-02-09T03:48:22.051Z,-0.48
2017-02-09T03:49:33.502Z,-0.51
2017-02-09T03:50:44.905Z,-0.58
2017-02-09T03:51:56.511Z,-0.58
2017-02-09T03:53:07.917Z,-0.66
2017-02-09T03:54:19.321Z,-0.66
2017-02-09T03:55:30.771Z,-0.56
2017-02-09T03:56:42.168Z,-0.58
2017-02-09T03:57:53.575Z,-0.62
2017-02-09T03:59:04.981Z,-0.66
2017-02-09T04:00:16.432Z,-0.7
2017-02-09T04:01:27.842Z,-0.67
2017-02-09T04:02:39.248Z,-0.72
2017-02-09T04:03:50.858Z,-0.64
2017-02-09T04:05:02.259Z,-0.64
2017-02-09T04:06:13.860Z,-0.58
2017-02-09T04:07:25.255Z,-0.64
2017-02-09T04:08:36.663Z,-0.66
2017-02-09T04:09:48.467Z,-0.58
2017-02-09T04:11:00.074Z,-0.62
2017-02-09T04:12:11.471Z,-0.64
2017-02-09T04:13:22.869Z,-0.69
2017-02-09T04:14:34.478Z,-0.7
2017-02-09T04:15:45.888Z,-0.66
2017-02-09T04:16:57.342Z,-0.7
2017-02-09T04:18:08.943Z,-0.67
2017-02-09T04:19:20.345Z,-0.67
2017-02-09T04:20:31.940Z,-0.69
2017-02-09T04:21:43.352Z,-0.7
2017-02-09T04:22:54.756Z,-0.77
2017-02-09T04:24:06.159Z,-0.7
2017-02-09T04:25:17.555Z,-0.67
2017-02-09T04:26:29.001Z,-0.69
2017-02-09T04:27:40.400Z,-0.69
2017-02-09T04:28:51.801Z,-0.7
2017-02-09T04:30:03.206Z,-0.77
2017-02-09T04:31:14.612Z,-0.82
2017-02-09T04:32:26.007Z,-0.77
2017-02-09T04:33:37.593Z,-0.87
2017-02-09T04:34:48.998Z,-0.79
2017-02-09T04:36:00.394Z,-0.79
2017-02-09T04:37:11.850Z,-0.76
2017-02-09T04:38:23.455Z,-0.85
2017-02-09T04:39:34.852Z,-0.85
2017-02-09T04:40:46.255Z,-0.92
2017-02-09T04:41:57.852Z,-0.89
2017-02-09T04:43:09.248Z,-0.79
2017-02-09T04:44:20.655Z,-0.87
2017-02-09T04:45:32.050Z,-0.95
2017-02-09T04:46:43.460Z,-0.95
2017-02-09T04:47:54.915Z,-0.93
2017-02-09T04:49:06.521Z,-0.95
2017-02-09T04:50:17.915Z,-1.04
2017-02-09T04:51:29.513Z,-0.95
2017-02-09T04:52:40.909Z,-1.07
2017-02-09T04:53:52.305Z,-1.03
2017-02-09T04:55:03.716Z,-0.95
2017-02-09T04:56:15.121Z,-0.95
2017-02-09T04:57:26.533Z,-0.96
2017-02-09T04:58:37.925Z,-0.89
2017-02-09T04:59:49.323Z,-0.96
2017-02-09T05:01:00.918Z,-0.85
2017-02-09T05:02:12.534Z,-0.93
2017-02-09T05:03:23.933Z,-0.8
2017-02-09T05:04:35.585Z,-0.89
2017-02-09T05:05:46.988Z,-0.89
2017-02-09T05:06:58.597Z,-0.92
2017-02-09T05:08:10.007Z,-0.98
2017-02-09T05:09:21.416Z,-0.91
2017-02-09T05:10:32.811Z,-0.89
2017-02-09T05:11:44.214Z,-0.82
2017-02-09T05:12:55.614Z,-0.8
2017-02-09T05:14:07.068Z,-0.79
2017-02-09T05:15:18.467Z,-0.76
2017-02-09T05:16:29.869Z,-0.76
2017-02-09T05:17:41.269Z,-0.87
2017-02-09T05:18:52.674Z,-0.87
2017-02-09T05:20:04.067Z,-0.93
2017-02-09T05:21:15.475Z,-0.77
2017-02-09T05:22:26.873Z,-0.77
2017-02-09T05:23:38.274Z,-0.85
2017-02-09T05:24:49.724Z,-0.73
2017-02-09T05:26:01.127Z,-0.7
2017-02-09T05:27:12.526Z,-0.61
2017-02-09T05:28:23.937Z,-0.66
2017-02-09T05:29:35.338Z,-0.64
2017-02-09T05:30:46.942Z,-0.61
2017-02-09T05:31:58.342Z,-0.66
2017-02-09T05:33:09.742Z,-0.73
2017-02-09T05:34:21.136Z,-0.74
2017-02-09T05:35:32.591Z,-0.7
2017-02-09T05:36:44.004Z,-0.76
2017-02-09T05:37:55.606Z,-0.74
2017-02-09T05:39:07.018Z,-0.76
2017-02-09T05:40:18.427Z,-0.8
2017-02-09T05:41:29.830Z,-0.77
2017-02-09T05:42:41.439Z,-0.84
2017-02-09T05:43:52.844Z,-0.77
2017-02-09T05:45:04.246Z,-0.8
2017-02-09T05:46:15.703Z,-0.79
2017-02-09T05:47:27.109Z,-0.79
2017-02-09T05:48:38.518Z,-0.79
2017-02-09T05:49:49.923Z,-0.7
2017-02-09T05:51:01.327Z,-0.74
2017-02-09T05:52:12.744Z,-0.79
2017-02-09T05:53:24.147Z,-0.74
2017-02-09T05:54:35.757Z,-0.72
2017-02-09T05:55:47.166Z,-0.73
2017-02-09T05:56:58.767Z,-0.74
2017-02-09T05:58:10.167Z,-0.72
2017-02-09T05:59:21.772Z,-0.8
2017-02-09T06:00:33.172Z,-0.8
2017-02-09T06:01:44.775Z,-0.8
2017-02-09T06:02:56.226Z,-0.79
2017-02-09T06:04:07.634Z,-0.82
2017-02-09T06:05:19.044Z,-0.77
2017-02-09T06:06:30.440Z,-0.79
2017-02-09T06:07:41.849Z,-0.76
2017-02-09T06:08:53.249Z,-0.85
2017-02-09T06:10:04.855Z,-0.77
2017-02-09T06:11:16.664Z,-0.84
2017-02-09T06:12:28.074Z,-0.92
2017-02-09T06:13:39.525Z,-0.96
2017-02-09T06:14:50.930Z,-0.91
2017-02-09T06:16:02.332Z,-0.87
2017-02-09T06:17:13.727Z,-0.85
2017-02-09T06:18:25.136Z,-0.89
2017-02-09T06:19:36.535Z,-0.92
2017-02-09T06:20:47.927Z,-0.93
2017-02-09T06:21:59.321Z,-1.04
2017-02-09T06:23:10.739Z,-1.04
2017-02-09T06:24:22.186Z,-0.98
2017-02-09T06:25:33.579Z,-0.93
2017-02-09T06:26:44.985Z,-0.99
2017-02-09T06:27:56.383Z,-0.99
2017-02-09T06:29:07.787Z,-1.01
2017-02-09T06:30:19.233Z,-1.01
2017-02-09T06:31:30.625Z,-1.11
2017-02-09T06:32:42.029Z,-1.04
2017-02-09T06:33:53.428Z,-1.06
2017-02-09T06:35:05.087Z,-1.11
2017-02-09T06:36:16.487Z,-0.96
2017-02-09T06:37:28.095Z,-1.01
2017-02-09T06:38:39.503Z,-0.93
2017-02-09T06:39:50.935Z,-1.09
2017-02-09T06:41:02.391Z,-0.96
2017-02-09T06:42:13.797Z,-1.09
2017-02-09T06:43:25.402Z,-1.1
2017-02-09T06:44:36.806Z,-1.01
2017-02-09T06:45:48.204Z,-1.06
2017-02-09T06:46:59.614Z,-1.01
2017-02-09T06:48:11.025Z,-0.99
2017-02-09T06:49:22.430Z,-1.06
2017-02-09T06:50:34.030Z,-1.14
2017-02-09T06:51:45.430Z,-0.99
2017-02-09T06:52:56.884Z,-1.04
2017-02-09T06:54:08.295Z,-0.95
2017-02-09T06:55:19.694Z,-0.99
2017-02-09T06:56:31.088Z,-1.01
2017-02-09T06:57:42.500Z,-1.03
2017-02-09T06:58:53.901Z,-1.09
2017-02-09T07:00:05.295Z,-1.1
2017-02-09T07:01:16.702Z,-1.07
2017-02-09T07:02:28.150Z,-1.09
2017-02-09T07:03:39.550Z,-1.13
2017-02-09T07:04:50.942Z,-1.06
2017-02-09T07:06:02.349Z,-1.09
2017-02-09T07:07:13.752Z,-1.09
2017-02-09T07:08:25.162Z,-1.07
2017-02-09T07:09:36.562Z,-1.09
2017-02-09T07:10:47.972Z,-1.09
2017-02-09T07:11:59.375Z,-0.96
2017-02-09T07:13:10.826Z,-0.93
2017-02-09T07:14:22.227Z,-0.95
2017-02-09T07:15:34.036Z,-1.01
2017-02-09T07:16:45.434Z,-0.99
2017-02-09T07:17:56.834Z,-1.07
2017-02-09T07:19:08.232Z,-0.95
2017-02-09T07:20:19.631Z,-0.91
2017-02-09T07:21:31.028Z,-0.99
2017-02-09T07:22:42.432Z,-1.01
2017-02-09T07:23:53.876Z,-0.98
2017-02-09T07:25:05.477Z,-1.09
2017-02-09T07:26:16.875Z,-1.01
2017-02-09T07:27:28.274Z,-0.99
2017-02-09T07:28:39.673Z,-0.93
2017-02-09T07:29:51.084Z,-1.01
2017-02-09T07:31:02.683Z,-1.01
2017-02-09T07:32:14.080Z,-0.99
2017-02-09T07:33:25.479Z,-1.06
2017-02-09T07:34:36.928Z,-1.03
2017-02-09T07:35:48.531Z,-1.01
2017-02-09T07:36:59.933Z,-1.09
2017-02-09T07:38:11.334Z,-1.11
2017-02-09T07:39:22.741Z,-1.11
2017-02-09T07:40:34.148Z,-1.19
2017-02-09T07:41:45.558Z,-1.11
2017-02-09T07:42:56.966Z,-1.17
2017-02-09T07:44:08.366Z,-1.19
2017-02-09T07:45:20.017Z,-1.13
2017-02-09T07:46:31.422Z,-1.09
2017-02-09T07:47:42.817Z,-1.07
2017-02-09T07:48:54.222Z,-1.13
2017-02-09T07:50:05.627Z,-1.07
2017-02-09T07:51:17.029Z,-1.06
2017-02-09T07:52:28.434Z,-0.93
2017-02-09T07:53:39.829Z,-0.96
2017-02-09T07:54:51.236Z,-0.91
2017-02-09T07:56:02.690Z,-0.87
2017-02-09T07:57:14.092Z,-0.93
2017-02-09T07:58:25.490Z,-0.92
2017-02-09T07:59:36.899Z,-1.03
2017-02-09T08:00:48.310Z,-1.04
2017-02-09T08:01:59.706Z,-1.03
2017-02-09T08:03:11.111Z,-0.99
2017-02-09T08:04:22.705Z,-1.03
2017-02-09T08:05:34.308Z,-0.99
2017-02-09T08:06:45.770Z,-0.99
2017-02-09T08:07:57.180Z,-0.96
2017-02-09T08:09:08.580Z,-0.96
2017-02-09T08:10:19.985Z,-1.03
2017-02-09T08:11:31.394Z,-0.99
2017-02-09T08:12:42.799Z,-0.99
2017-02-09T08:13:54.203Z,-1.01
2017-02-09T08:15:05.611Z,-0.87
2017-02-09T08:16:17.216Z,-0.96
2017-02-09T08:17:28.663Z,-0.91
2017-02-09T08:18:40.076Z,-1.03
2017-02-09T08:19:51.479Z,-0.98
2017-02-09T08:21:02.889Z,-0.96
2017-02-09T08:22:14.298Z,-0.95
2017-02-09T08:23:25.752Z,-0.96
2017-02-09T08:24:37.165Z,-0.95
2017-02-09T08:25:48.563Z,-0.91
2017-02-09T08:26:59.969Z,-0.85
2017-02-09T08:28:11.381Z,-0.93
2017-02-09T08:29:22.786Z,-0.92
2017-02-09T08:30:34.193Z,-0.95
2017-02-09T08:31:45.591Z,-0.91
2017-02-09T08:32:57.190Z,-0.95
2017-02-09T08:34:08.846Z,-0.95
2017-02-09T08:35:20.247Z,-0.95
2017-02-09T08:36:31.847Z,-0.98
2017-02-09T08:37:43.653Z,-0.95
2017-02-09T08:38:55.053Z,-1.01
2017-02-09T08:40:06.652Z,-0.96
2017-02-09T08:41:18.054Z,-0.98
2017-02-09T08:42:29.461Z,-0.92
2017-02-09T08:43:40.863Z,-0.98
2017-02-09T08:44:52.316Z,-0.96
2017-02-09T08:46:03.712Z,-1.03
2017-02-09T08:47:15.317Z,-0.99
2017-02-09T08:48:26.722Z,-0.95
2017-02-09T08:49:38.323Z,-0.95
2017-02-09T08:50:49.935Z,-0.96
2017-02-09T08:52:01.333Z,-0.98
2017-02-09T08:53:12.739Z,-0.96
2017-02-09T08:54:24.141Z,-0.96
2017-02-09T08:55:35.628Z,-0.95
2017-02-09T08:56:47.030Z,-0.87
2017-02-09T08:57:58.440Z,-0.95
2017-02-09T08:59:10.242Z,-0.95
2017-02-09T09:00:21.648Z,-0.99
2017-02-09T09:01:33.067Z,-0.92
2017-02-09T09:02:44.468Z,-0.87
2017-02-09T09:03:55.870Z,-0.96
2017-02-09T09:05:07.283Z,-1.06
2017-02-09T09:06:18.741Z,-0.98
2017-02-09T09:07:30.140Z,-0.92
2017-02-09T09:08:41.747Z,-0.95
2017-02-09T09:09:53.347Z,-0.85
2017-02-09T09:11:04.754Z,-0.82
2017-02-09T09:12:16.362Z,-0.89
2017-02-09T09:13:27.967Z,-0.87
2017-02-09T09:14:39.372Z,-0.96
2017-02-09T09:15:50.780Z,-0.95
2017-02-09T09:17:02.385Z,-0.8
2017-02-09T09:18:13.865Z,-0.76
2017-02-09T09:19:25.264Z,-0.73
2017-02-09T09:20:36.667Z,-0.7
2017-02-09T09:21:48.077Z,-0.77
2017-02-09T09:22:59.485Z,-0.74
2017-02-09T09:24:10.894Z,-0.69
2017-02-09T09:25:22.287Z,-0.67
2017-02-09T09:26:33.717Z,-0.62
2017-02-09T09:27:45.177Z,-0.73
2017-02-09T09:28:56.586Z,-0.64
2017-02-09T09:30:07.984Z,-0.61
2017-02-09T09:31:19.590Z,-0.59
2017-02-09T09:32:31.000Z,-0.56
2017-02-09T09:33:42.408Z,-0.64
2017-02-09T09:34:53.807Z,-0.74
2017-02-09T09:36:05.212Z,-0.64
2017-02-09T09:37:16.813Z,-0.56
2017-02-09T09:38:28.268Z,-0.7
2017-02-09T09:39:39.681Z,-0.73
2017-02-09T09:40:51.082Z,-0.61
2017-02-09T09:42:02.479Z,-0.62
2017-02-09T09:43:13.879Z,-0.69
2017-02-09T09:44:25.280Z,-0.64
2017-02-09T09:45:36.687Z,-0.61
2017-02-09T09:46:48.498Z,-0.64
2017-02-09T09:47:59.896Z,-0.66
2017-02-09T09:49:11.343Z,-0.67
2017-02-09T09:50:22.746Z,-0.7
2017-02-09T09:51:34.154Z,-0.59
2017-02-09T09:52:45.758Z,-0.56
2017-02-09T09:53:57.165Z,-0.38
2017-02-09T09:55:08.569Z,-0.55
2017-02-09T09:56:19.967Z,-0.54
2017-02-09T09:57:31.577Z,-0.58
2017-02-09T09:58:43.186Z,-0.62
2017-02-09T09:59:54.988Z,-0.69
2017-02-09T10:01:06.639Z,-0.67
2017-02-09T10:02:18.049Z,-0.66
2017-02-09T10:03:29.454Z,-0.61
2017-02-09T10:04:40.901Z,-0.59
2017-02-09T10:05:52.311Z,-0.41
2017-02-09T10:07:03.714Z,-0.38
2017-02-09T10:08:15.117Z,-0.45
2017-02-09T10:09:26.523Z,-0.41
2017-02-09T10:10:37.976Z,-0.49
2017-02-09T10:11:49.786Z,-0.38
2017-02-09T10:13:01.187Z,-0.55
2017-02-09T10:14:12.590Z,-0.55
2017-02-09T10:15:24.189Z,-0.46
2017-02-09T10:16:35.597Z,-0.43
2017-02-09T10:17:46.999Z,-0.4
2017-02-09T10:18:58.391Z,-0.45
2017-02-09T10:20:09.797Z,-0.48
2017-02-09T10:21:21.249Z,-0.52
2017-02-09T10:22:32.656Z,-0.48
2017-02-09T10:23:44.053Z,-0.41
2017-02-09T10:24:55.667Z,-0.48
2017-02-09T10:26:07.069Z,-0.41
2017-02-09T10:27:18.471Z,-0.31
2017-02-09T10:28:29.879Z,-0.38
2017-02-09T10:29:41.285Z,-0.3
2017-02-09T10:30:52.690Z,-0.23
2017-02-09T10:32:04.336Z,-0.36
2017-02-09T10:33:15.742Z,-0.36
2017-02-09T10:34:27.153Z,-0.41
2017-02-09T10:35:38.546Z,-0.3
2017-02-09T10:36:49.958Z,-0.3
2017-02-09T10:38:01.418Z,-0.27
2017-02-09T10:39:12.824Z,-0.3
2017-02-09T10:40:24.433Z,-0.3
2017-02-09T10:41:36.035Z,-0.27
2017-02-09T10:42:47.445Z,-0.09
2017-02-09T10:43:58.845Z,-0.2
2017-02-09T10:45:10.451Z,-0.15
2017-02-09T10:46:21.863Z,-0.22
2017-02-09T10:47:33.267Z,-0.2
2017-02-09T10:48:44.664Z,-0.22
2017-02-09T10:49:56.114Z,-0.23
2017-02-09T10:51:07.515Z,-0.36
2017-02-09T10:52:19.122Z,-0.41
2017-02-09T10:53:30.529Z,-0.41
2017-02-09T10:54:41.936Z,-0.46
2017-02-09T10:55:53.336Z,-0.51
2017-02-09T10:57:04.745Z,-0.51
2017-02-09T10:58:16.349Z,-0.46
2017-02-09T10:59:27.803Z,-0.46
2017-02-09T11:00:39.201Z,-0.43
2017-02-09T11:01:50.612Z,-0.4
2017-02-09T11:03:02.012Z,-0.37
2017-02-09T11:04:13.615Z,-0.33
2017-02-09T11:05:25.048Z,-0.25
2017-02-09T11:06:36.449Z,-0.18
2017-02-09T11:07:48.056Z,-0.18
2017-02-09T11:08:59.656Z,-0.27
2017-02-09T11:10:11.104Z,-0.2
2017-02-09T11:11:22.509Z,-0.16
2017-02-09T11:12:33.910Z,-0.31
2017-02-09T11:13:45.307Z,-0.28
2017-02-09T11:14:56.711Z,-0.37
2017-02-09T11:16:08.105Z,-0.4
2017-02-09T11:17:19.510Z,-0.27
2017-02-09T11:18:30.920Z,-0.3
2017-02-09T11:19:42.322Z,-0.22
2017-02-09T11:20:53.776Z,-0.18
2017-02-09T11:22:05.374Z,-0.09
2017-02-09T11:23:16.785Z,-0.15
2017-02-09T11:24:28.187Z,-0.02
2017-02-09T11:25:39.796Z,-0.04
2017-02-09T11:26:51.199Z,-0.04
2017-02-09T11:28:02.597Z,0.05
2017-02-09T11:29:14.008Z,-0.05
2017-02-09T11:30:25.403Z,0.13
2017-02-09T11:31:37.061Z,0.08
2017-02-09T11:32:48.463Z,0.1
2017-02-09T11:33:59.869Z,0.05
2017-02-09T11:35:11.677Z,-0.09
2017-02-09T11:36:23.069Z,0.01
2017-02-09T11:37:34.479Z,0.02
2017-02-09T11:38:46.080Z,-0.16
2017-02-09T11:39:57.679Z,-0.13
2017-02-09T11:41:09.079Z,-0.15
2017-02-09T11:42:20.489Z,0.05
2017-02-09T11:43:31.948Z,0.17
2017-02-09T11:44:43.345Z,0.2
2017-02-09T11:45:54.749Z,0.19
2017-02-09T11:47:06.148Z,0.23
2017-02-09T11:48:17.791Z,0.24
2017-02-09T11:49:29.402Z,0.21
2017-02-09T11:50:40.798Z,0.17
2017-02-09T11:51:52.207Z,0.08
2017-02-09T11:53:03.662Z,0.09
2017-02-09T11:54:15.056Z,0.16
2017-02-09T11:55:26.460Z,0.2
2017-02-09T11:56:37.857Z,0.17
2017-02-09T11:57:49.463Z,0.2
2017-02-09T11:59:01.071Z,0.32
2017-02-09T12:00:12.475Z,0.24
2017-02-09T12:01:23.885Z,0.2
2017-02-09T12:02:35.292Z,0.17
2017-02-09T12:03:46.740Z,0.08
2017-02-09T12:04:58.145Z,0.19
2017-02-09T12:06:09.754Z,0.21
2017-02-09T12:07:21.167Z,0.19
2017-02-09T12:08:32.573Z,0.28
2017-02-09T12:09:43.974Z,0.35
2017-02-09T12:10:55.383Z,0.37
2017-02-09T12:12:06.787Z,0.27
2017-02-09T12:13:18.194Z,0.2
2017-02-09T12:14:29.654Z,0.37
2017-02-09T12:15:41.062Z,0.38
2017-02-09T12:16:52.673Z,0.45
2017-02-09T12:18:04.086Z,0.41
2017-02-09T12:19:15.492Z,0.38
2017-02-09T12:20:26.923Z,0.32
2017-02-09T12:21:38.339Z,0.39
2017-02-09T12:22:49.738Z,0.35
2017-02-09T12:24:01.144Z,0.31
2017-02-09T12:25:12.552Z,0.38
2017-02-09T12:26:24.153Z,0.38
2017-02-09T12:27:35.965Z,0.37
2017-02-09T12:28:47.373Z,0.23
2017-02-09T12:29:58.787Z,0.13
2017-02-09T12:31:10.189Z,0.17
2017-02-09T12:32:21.644Z,0.21
2017-02-09T12:33:33.048Z,0.27
2017-02-09T12:34:44.451Z,0.19
2017-02-09T12:35:55.861Z,0.17
2017-02-09T12:37:07.257Z,0.26
2017-02-09T12:38:18.671Z,0.21
2017-02-09T12:39:30.071Z,0.31
2017-02-09T12:40:41.687Z,0.39
2017-02-09T12:41:53.137Z,0.41
2017-02-09T12:43:04.541Z,0.37
2017-02-09T12:44:15.952Z,0.39
2017-02-09T12:45:27.351Z,0.34
2017-02-09T12:46:38.754Z,0.42
2017-02-09T12:47:50.161Z,0.38
2017-02-09T12:49:01.766Z,0.38
2017-02-09T12:50:13.176Z,0.41
2017-02-09T12:51:24.577Z,0.42
2017-02-09T12:52:36.045Z,0.35
2017-02-09T12:53:47.447Z,0.39
2017-02-09T12:54:58.849Z,0.47
2017-02-09T12:56:10.444Z,0.41
2017-02-09T12:57:21.851Z,0.57
2017-02-09T12:58:33.259Z,0.57
2017-02-09T12:59:44.663Z,0.45
2017-02-09T13:00:56.073Z,0.35
2017-02-09T13:02:07.481Z,0.48
2017-02-09T13:03:18.938Z,0.48
2017-02-09T13:04:30.336Z,0.52
2017-02-09T13:05:41.760Z,0.38
2017-02-09T13:06:53.158Z,0.28
2017-02-09T13:08:04.559Z,0.27
2017-02-09T13:09:15.972Z,0.28
2017-02-09T13:10:27.578Z,0.35
2017-02-09T13:11:38.981Z,0.31
2017-02-09T13:12:50.390Z,0.34
2017-02-09T13:14:01.798Z,0.24
2017-02-09T13:15:13.246Z,0.2
2017-02-09T13:16:24.652Z,0.2
2017-02-09T13:17:36.061Z,0.21
2017-02-09T13:18:47.468Z,0.26
2017-02-09T13:19:58.899Z,0.41
2017-02-09T13:21:10.304Z,0.35
2017-02-09T13:22:21.724Z,0.38
2017-02-09T13:23:33.137Z,0.32
2017-02-09T13:24:44.579Z,0.39
2017-02-09T13:25:55.996Z,0.34
2017-02-09T13:27:07.408Z,0.42
2017-02-09T13:28:18.811Z,0.44
2017-02-09T13:29:30.420Z,0.57
2017-02-09T13:30:41.828Z,0.64
2017-02-09T13:31:53.430Z,0.58
2017-02-09T13:33:05.031Z,0.64
2017-02-09T13:34:16.444Z,0.53
2017-02-09T13:35:27.894Z,0.45
2017-02-09T13:36:39.300Z,0.52
2017-02-09T13:37:50.706Z,0.37
2017-02-09T13:39:02.117Z,0.37
2017-02-09T13:40:13.519Z,0.44
2017-02-09T13:41:24.924Z,0.5
2017-02-09T13:42:36.341Z,0.44
2017-02-09T13:43:47.746Z,0.45
2017-02-09T13:44:59.151Z,0.6
2017-02-09T13:46:10.603Z,0.5
2017-02-09T13:47:21.999Z,0.42
2017-02-09T13:48:33.395Z,0.45
2017-02-09T13:49:44.795Z,0.32
2017-02-09T13:50:56.196Z,0.41
2017-02-09T13:52:07.643Z,0.38
2017-02-09T13:53:19.252Z,0.37
2017-02-09T13:54:30.853Z,0.37
2017-02-09T13:55:42.258Z,0.31
2017-02-09T13:56:53.865Z,0.26
2017-02-09T13:58:05.318Z,0.2
2017-02-09T13:59:16.721Z,0.27
2017-02-09T14:00:28.128Z,0.19
2017-02-09T14:01:39.533Z,0.23
2017-02-09T14:02:51.135Z,0.35
2017-02-09T14:04:02.793Z,0.34
2017-02-09T14:05:14.198Z,0.37
2017-02-09T14:06:25.603Z,0.38
2017-02-09T14:07:37.006Z,0.42
2017-02-09T14:08:48.405Z,0.44
2017-02-09T14:09:59.806Z,0.38
2017-02-09T14:11:11.206Z,0.38
2017-02-09T14:12:22.604Z,0.32
2017-02-09T14:13:34.060Z,0.47
2017-02-09T14:14:45.465Z,0.37
2017-02-09T14:15:56.866Z,0.34
2017-02-09T14:17:08.272Z,0.39
2017-02-09T14:18:19.676Z,0.35
2017-02-09T14:19:31.079Z,0.45
2017-02-09T14:20:42.480Z,0.6
2017-02-09T14:21:53.885Z,0.69
2017-02-09T14:23:05.287Z,0.66
2017-02-09T14:24:16.938Z,0.64
2017-02-09T14:25:28.339Z,0.63
2017-02-09T14:26:39.750Z,0.58
2017-02-09T14:27:51.155Z,0.6
2017-02-09T14:29:02.557Z,0.64
2017-02-09T14:30:13.960Z,0.64
2017-02-09T14:31:25.362Z,0.64
2017-02-09T14:32:36.775Z,0.69
2017-02-09T14:33:48.176Z,0.71
2017-02-09T14:34:59.835Z,0.72
2017-02-09T14:36:11.246Z,0.71
2017-02-09T14:37:22.658Z,0.82
2017-02-09T14:38:34.071Z,0.67
2017-02-09T14:39:45.477Z,0.75
2017-02-09T14:40:56.870Z,0.72
2017-02-09T14:42:08.478Z,0.74
2017-02-09T14:43:19.876Z,0.86
2017-02-09T14:44:31.293Z,0.85
2017-02-09T14:45:42.745Z,0.74
2017-02-09T14:46:54.147Z,0.76
2017-02-09T14:48:05.557Z,0.74
2017-02-09T14:49:16.961Z,0.61
2017-02-09T14:50:28.369Z,0.69
2017-02-09T14:51:39.976Z,0.6
2017-02-09T14:52:51.382Z,0.6
2017-02-09T14:54:02.782Z,0.74
2017-02-09T14:55:14.383Z,0.66
2017-02-09T14:56:26.043Z,0.71
2017-02-09T14:57:37.452Z,0.67
2017-02-09T14:58:48.890Z,0.75
2017-02-09T15:00:00.308Z,0.78
2017-02-09T15:01:11.713Z,0.71
2017-02-09T15:02:23.128Z,0.6
2017-02-09T15:03:34.729Z,0.72
2017-02-09T15:04:46.141Z,0.63
2017-02-09T15:05:57.557Z,0.71
2017-02-09T15:07:09.011Z,0.67
2017-02-09T15:08:20.427Z,0.64
2017-02-09T15:09:31.846Z,0.63
2017-02-09T15:10:43.462Z,0.66
2017-02-09T15:11:54.855Z,0.66
2017-02-09T15:13:06.261Z,0.66
2017-02-09T15:14:17.673Z,0.63
2017-02-09T15:15:29.077Z,0.63
2017-02-09T15:16:40.688Z,0.6
2017-02-09T15:17:52.150Z,0.64
2017-02-09T15:19:03.757Z,0.63
2017-02-09T15:20:15.365Z,0.58
2017-02-09T15:21:26.766Z,0.64
2017-02-09T15:22:38.172Z,0.56
2017-02-09T15:23:49.775Z,0.56
2017-02-09T15:25:01.180Z,0.56
2017-02-09T15:26:12.979Z,0.42
2017-02-09T15:27:24.384Z,0.52
2017-02-09T15:28:36.046Z,0.52
2017-02-09T15:29:47.450Z,0.57
2017-02-09T15:30:59.059Z,0.35